createdAt,value
2019-02-20T00:02:13.772Z,101282.66
2019-02-20T00:04:42.948Z,101281.65
2019-02-20T00:07:12.314Z,101285.57
2019-02-20T00:09:41.612Z,101286.95
2019-02-20T00:12:10.907Z,101282.62
2019-02-20T00:14:40.118Z,101290.87
2019-02-20T00:17:09.332Z,101291.52
2019-02-20T00:19:38.480Z,101291.52
2019-02-20T00:22:07.741Z,101288.59
2019-02-20T00:24:37.048Z,101293.28
2019-02-20T00:27:06.701Z,101292.92
2019-02-20T00:29:35.949Z,101296.71
2019-02-20T00:32:05.256Z,101294.91
2019-02-20T00:34:34.445Z,101300.52
2019-02-20T00:37:03.812Z,101294.55
2019-02-20T00:39:33.106Z,101298.14
2019-02-20T00:42:02.479Z,101292.00
2019-02-20T00:44:56.593Z,101287.09
2019-02-20T00:47:56.820Z,101288.20
2019-02-20T00:50:27.804Z,101292.24
2019-02-20T00:53:05.594Z,101301.87
2019-02-20T00:55:34.789Z,101298.16
2019-02-20T00:58:04.219Z,101308.37
2019-02-20T01:00:33.533Z,101307.53
2019-02-20T01:03:02.874Z,101309.82
2019-02-20T01:05:32.191Z,101309.17
2019-02-20T01:08:01.549Z,101315.41
2019-02-20T01:10:30.897Z,101306.91
2019-02-20T01:13:02.631Z,101303.32
2019-02-20T01:15:31.876Z,101306.84
2019-02-20T01:18:01.119Z,101314.03
2019-02-20T01:20:30.579Z,101311.47
2019-02-20T01:23:00.384Z,101310.25
2019-02-20T01:25:29.879Z,101309.69
2019-02-20T01:27:59.089Z,101310.25
2019-02-20T01:30:28.481Z,101304.34
2019-02-20T01:32:57.953Z,101303.71
2019-02-20T01:35:27.320Z,101302.27
2019-02-20T01:37:56.551Z,101304.97
2019-02-20T01:40:25.682Z,101312.64
2019-02-20T01:42:55.128Z,101308.01
2019-02-20T01:45:24.701Z,101303.56
2019-02-20T01:47:54.177Z,101306.75
2019-02-20T01:50:23.646Z,101305.44
2019-02-20T01:52:52.879Z,101302.97
2019-02-20T01:55:22.260Z,101300.66
2019-02-20T01:57:51.620Z,101296.14
2019-02-20T02:00:21.251Z,101292.33
2019-02-20T02:02:52.171Z,101296.98
2019-02-20T02:05:21.395Z,101294.51
2019-02-20T02:07:50.538Z,101297.83
2019-02-20T02:10:19.717Z,101296.20
2019-02-20T02:12:48.957Z,101302.00
2019-02-20T02:15:20.413Z,101304.03
2019-02-20T02:17:49.088Z,101303.25
2019-02-20T02:20:18.311Z,101300.44
2019-02-20T02:22:47.666Z,101292.34
2019-02-20T02:25:16.951Z,101290.88
2019-02-20T02:27:46.096Z,101291.06
2019-02-20T02:30:15.498Z,101283.90
2019-02-20T02:32:45.717Z,101284.37
2019-02-20T02:35:15.087Z,101280.89
2019-02-20T02:37:44.258Z,101274.78
2019-02-20T02:40:13.455Z,101273.81
2019-02-20T02:42:42.891Z,101276.47
2019-02-20T02:45:12.096Z,101281.78
2019-02-20T02:47:41.324Z,101281.47
2019-02-20T02:50:10.677Z,101276.87
2019-02-20T02:52:40.041Z,101278.33
2019-02-20T02:55:09.385Z,101269.56
2019-02-20T02:57:38.777Z,101280.50
2019-02-20T03:00:08.605Z,101277.53
2019-02-20T03:02:37.858Z,101273.20
2019-02-20T03:05:07.323Z,101281.52
2019-02-20T03:07:36.631Z,101278.52
2019-02-20T03:10:06.650Z,101284.17
2019-02-20T03:12:35.932Z,101277.05
2019-02-20T03:15:05.987Z,101281.91
2019-02-20T03:17:35.112Z,101279.56
2019-02-20T03:20:04.494Z,101285.55
2019-02-20T03:22:33.747Z,101290.36
2019-02-20T03:25:02.965Z,101288.86
2019-02-20T03:27:32.353Z,101288.16
2019-02-20T03:30:01.602Z,101284.84
2019-02-20T03:32:30.900Z,101287.18
2019-02-20T03:35:00.228Z,101280.41
2019-02-20T03:37:29.552Z,101282.05
2019-02-20T03:39:58.927Z,101287.53
2019-02-20T03:42:28.262Z,101285.89
2019-02-20T03:44:57.541Z,101290.36
2019-02-20T03:47:26.847Z,101282.74
2019-02-20T03:49:56.167Z,101291.02
2019-02-20T03:52:25.376Z,101288.51
2019-02-20T03:54:54.747Z,101293.54
2019-02-20T03:57:24.031Z,101289.04
2019-02-20T03:59:53.199Z,101293.20
2019-02-20T04:02:22.371Z,101296.20
2019-02-20T04:04:51.526Z,101291.55
2019-02-20T04:07:20.734Z,101298.86
2019-02-20T04:09:49.946Z,101297.87
2019-02-20T04:12:19.325Z,101296.86
2019-02-20T04:14:48.670Z,101298.02
2019-02-20T04:17:17.858Z,101297.35
2019-02-20T04:19:47.146Z,101297.52
2019-02-20T04:22:16.386Z,101298.50
2019-02-20T04:24:45.547Z,101299.48
2019-02-20T04:27:14.803Z,101297.00
2019-02-20T04:29:44.090Z,101290.58
2019-02-20T04:32:13.399Z,101290.58
2019-02-20T04:34:42.719Z,101292.04
2019-02-20T04:37:11.990Z,101293.20
2019-02-20T04:39:41.151Z,101299.55
2019-02-20T04:42:10.420Z,101294.21
2019-02-20T04:44:39.728Z,101289.88
2019-02-20T04:47:08.929Z,101285.55
2019-02-20T04:49:38.203Z,101291.52
2019-02-20T04:52:07.521Z,101285.50
2019-02-20T04:54:36.752Z,101287.80
2019-02-20T04:57:06.091Z,101293.91
2019-02-20T04:59:35.391Z,101295.22
2019-02-20T05:02:04.568Z,101292.66
2019-02-20T05:04:33.907Z,101296.31
2019-02-20T05:07:03.096Z,101298.97
2019-02-20T05:09:32.495Z,101299.99
2019-02-20T05:12:01.877Z,101296.02
2019-02-20T05:14:31.158Z,101297.70
2019-02-20T05:17:00.363Z,101299.16
2019-02-20T05:19:29.630Z,101295.71
2019-02-20T05:21:58.859Z,101292.70
2019-02-20T05:24:28.221Z,101296.33
2019-02-20T05:26:57.444Z,101301.58
2019-02-20T05:29:26.970Z,101303.20
2019-02-20T05:31:56.287Z,101300.86
2019-02-20T05:34:25.508Z,101295.91
2019-02-20T05:36:54.817Z,101292.17
2019-02-20T05:39:24.245Z,101300.30
2019-02-20T05:41:53.521Z,101293.84
2019-02-20T05:44:22.959Z,101293.06
2019-02-20T05:46:52.278Z,101295.05
2019-02-20T05:49:21.968Z,101293.60
2019-02-20T05:51:51.280Z,101293.23
2019-02-20T05:54:20.594Z,101294.58
2019-02-20T05:56:49.948Z,101288.31
2019-02-20T05:59:19.265Z,101293.13
2019-02-20T06:01:48.509Z,101297.23
2019-02-20T06:04:17.796Z,101298.02
2019-02-20T06:06:47.266Z,101306.08
2019-02-20T06:09:16.512Z,101306.02
2019-02-20T06:11:45.736Z,101308.67
2019-02-20T06:14:15.058Z,101307.64
2019-02-20T06:16:44.376Z,101308.59
2019-02-20T06:19:13.641Z,101307.07
2019-02-20T06:21:42.903Z,101316.86
2019-02-20T06:24:12.287Z,101320.52
2019-02-20T06:26:41.508Z,101319.78
2019-02-20T06:29:10.847Z,101328.31
2019-02-20T06:31:40.189Z,101326.20
2019-02-20T06:34:09.509Z,101322.36
2019-02-20T06:36:38.842Z,101323.69
2019-02-20T06:39:08.039Z,101331.34
2019-02-20T06:41:39.414Z,101332.86
2019-02-20T06:44:08.204Z,101333.09
2019-02-20T06:46:37.653Z,101333.56
2019-02-20T06:49:06.927Z,101329.95
2019-02-20T06:51:36.281Z,101339.72
2019-02-20T06:54:05.482Z,101337.27
2019-02-20T06:56:34.816Z,101347.26
2019-02-20T06:59:04.082Z,101345.11
2019-02-20T07:01:33.394Z,101349.70
2019-02-20T07:04:02.745Z,101356.22
2019-02-20T07:07:19.916Z,101359.10
2019-02-20T07:10:45.401Z,101360.31
2019-02-20T07:14:07.405Z,101365.16
2019-02-20T07:17:08.438Z,101364.22
2019-02-20T07:20:04.281Z,101366.22
2019-02-20T07:23:11.839Z,101371.62
2019-02-20T07:26:18.056Z,101371.45
2019-02-20T07:29:02.872Z,101374.63
2019-02-20T07:31:32.162Z,101376.66
2019-02-20T07:34:01.508Z,101381.00
2019-02-20T07:36:30.771Z,101381.52
2019-02-20T07:39:00.021Z,101377.36
2019-02-20T07:41:29.299Z,101386.35
2019-02-20T07:43:58.731Z,101386.35
2019-02-20T07:46:27.967Z,101391.66
2019-02-20T07:48:57.227Z,101396.49
2019-02-20T07:51:26.575Z,101406.63
2019-02-20T07:53:55.850Z,101398.84
2019-02-20T07:56:25.210Z,101408.17
2019-02-20T07:58:54.512Z,101407.04
2019-02-20T08:01:23.941Z,101408.41
2019-02-20T08:03:53.274Z,101408.97
2019-02-20T08:06:22.646Z,101409.80
2019-02-20T08:08:51.879Z,101410.64
2019-02-20T08:11:21.094Z,101418.13
2019-02-20T08:13:50.397Z,101425.27
2019-02-20T08:16:19.682Z,101422.78
2019-02-20T08:18:48.931Z,101430.05
2019-02-20T08:21:18.252Z,101427.35
2019-02-20T08:23:47.466Z,101433.14
2019-02-20T08:26:16.733Z,101438.62
2019-02-20T08:28:47.229Z,101433.95
2019-02-20T08:31:16.438Z,101440.73
2019-02-20T08:33:45.852Z,101437.52
2019-02-20T08:36:15.121Z,101445.12
2019-02-20T08:38:44.513Z,101444.78
2019-02-20T08:41:13.847Z,101445.46
2019-02-20T08:43:43.200Z,101445.27
2019-02-20T08:46:12.407Z,101454.45
2019-02-20T08:48:41.866Z,101454.39
2019-02-20T08:51:11.186Z,101457.28
2019-02-20T08:53:40.586Z,101451.52
2019-02-20T08:56:09.781Z,101458.53
2019-02-20T08:58:39.173Z,101460.81
2019-02-20T09:01:08.401Z,101462.83
2019-02-20T09:03:37.777Z,101462.24
2019-02-20T09:06:07.005Z,101460.35
2019-02-20T09:08:36.424Z,101458.55
2019-02-20T09:11:05.767Z,101462.25
2019-02-20T09:13:35.783Z,101463.38
2019-02-20T09:16:05.012Z,101468.01
2019-02-20T09:18:34.432Z,101463.25
2019-02-20T09:21:03.664Z,101465.78
2019-02-20T09:23:33.087Z,101475.59
2019-02-20T09:26:02.329Z,101471.75
2019-02-20T09:28:31.681Z,101473.23
2019-02-20T09:31:01.061Z,101474.47
2019-02-20T09:33:30.470Z,101472.65
2019-02-20T09:35:59.772Z,101470.67
2019-02-20T09:38:29.162Z,101475.22
2019-02-20T09:40:58.501Z,101474.88
2019-02-20T09:43:27.827Z,101472.91
2019-02-20T09:45:57.088Z,101473.93
2019-02-20T09:48:26.493Z,101476.84
2019-02-20T09:50:55.797Z,101476.38
2019-02-20T09:53:25.007Z,101485.47
2019-02-20T09:55:54.297Z,101484.61
2019-02-20T09:58:23.494Z,101483.23
2019-02-20T10:00:52.933Z,101486.45
2019-02-20T10:03:22.135Z,101482.30
2019-02-20T10:05:51.422Z,101484.29
2019-02-20T10:08:20.907Z,101488.06
2019-02-20T10:10:50.394Z,101496.08
2019-02-20T10:13:19.631Z,101494.45
2019-02-20T10:15:48.936Z,101495.28
2019-02-20T10:18:18.379Z,101494.29
2019-02-20T10:20:47.656Z,101494.06
2019-02-20T10:23:16.976Z,101496.99
2019-02-20T10:25:46.261Z,101507.78
2019-02-20T10:28:15.535Z,101508.53
2019-02-20T10:30:44.931Z,101501.24
2019-02-20T10:33:14.333Z,101506.44
2019-02-20T10:35:43.696Z,101514.60
2019-02-20T10:38:13.021Z,101520.16
2019-02-20T10:40:42.488Z,101517.72
2019-02-20T10:43:11.760Z,101512.05
2019-02-20T10:45:41.256Z,101511.73
2019-02-20T10:48:10.586Z,101520.91
2019-02-20T10:50:39.932Z,101522.72
2019-02-20T10:53:09.258Z,101518.27
2019-02-20T10:55:38.539Z,101522.79
2019-02-20T10:58:07.872Z,101521.52
2019-02-20T11:00:37.181Z,101517.77
2019-02-20T11:03:06.401Z,101520.22
2019-02-20T11:05:35.640Z,101518.70
2019-02-20T11:08:04.856Z,101519.34
2019-02-20T11:10:34.140Z,101518.63
2019-02-20T11:13:03.448Z,101521.72
2019-02-20T11:15:32.743Z,101525.09
2019-02-20T11:18:02.018Z,101520.34
2019-02-20T11:20:31.297Z,101524.46
2019-02-20T11:23:00.559Z,101520.92
2019-02-20T11:25:31.384Z,101522.73
2019-02-20T11:28:00.653Z,101525.86
2019-02-20T11:30:30.147Z,101531.44
2019-02-20T11:32:59.534Z,101529.91
2019-02-20T11:35:28.942Z,101527.56
2019-02-20T11:37:58.207Z,101530.28
2019-02-20T11:40:27.747Z,101524.29
2019-02-20T11:42:57.024Z,101512.80
2019-02-20T11:45:26.312Z,101515.41
2019-02-20T11:47:55.661Z,101513.04
2019-02-20T11:50:24.973Z,101516.77
2019-02-20T11:52:54.318Z,101515.80
2019-02-20T11:55:23.549Z,101518.48
2019-02-20T11:58:00.493Z,101518.22
2019-02-20T12:00:26.964Z,101512.19
2019-02-20T12:02:56.280Z,101509.54
2019-02-20T12:05:25.669Z,101504.58
2019-02-20T12:07:55.058Z,101504.77
2019-02-20T12:10:24.433Z,101512.13
2019-02-20T12:12:53.690Z,101506.86
2019-02-20T12:15:22.919Z,101512.05
2019-02-20T12:17:52.132Z,101513.57
2019-02-20T12:20:21.457Z,101510.12
2019-02-20T12:22:50.761Z,101507.75
2019-02-20T12:25:20.081Z,101516.13
2019-02-20T12:27:49.404Z,101508.84
2019-02-20T12:30:18.679Z,101507.80
2019-02-20T12:32:48.051Z,101499.96
2019-02-20T12:35:17.377Z,101504.67
2019-02-20T12:37:46.866Z,101499.61
2019-02-20T12:40:17.106Z,101500.48
2019-02-20T12:42:46.467Z,101492.96
2019-02-20T12:45:15.676Z,101493.70
2019-02-20T12:47:44.928Z,101494.38
2019-02-20T12:50:14.168Z,101491.60
2019-02-20T12:52:43.531Z,101499.00
2019-02-20T12:55:12.980Z,101503.83
2019-02-20T12:57:42.221Z,101499.78
2019-02-20T13:00:12.079Z,101499.17
2019-02-20T13:02:41.371Z,101489.86
2019-02-20T13:05:10.749Z,101494.11
2019-02-20T13:07:40.131Z,101496.08
2019-02-20T13:10:09.502Z,101489.98
2019-02-20T13:12:38.744Z,101486.16
2019-02-20T13:15:08.216Z,101492.33
2019-02-20T13:17:37.449Z,101488.83
2019-02-20T13:20:06.894Z,101486.53
2019-02-20T13:22:36.175Z,101484.13
2019-02-20T13:25:05.534Z,101484.58
2019-02-20T13:27:34.768Z,101490.25
2019-02-20T13:30:04.125Z,101485.58
2019-02-20T13:32:33.382Z,101487.56
2019-02-20T13:35:02.555Z,101493.33
2019-02-20T13:37:31.832Z,101487.28
2019-02-20T13:40:01.151Z,101483.25
2019-02-20T13:42:32.057Z,101483.87
2019-02-20T13:45:01.454Z,101477.33
2019-02-20T13:47:31.719Z,101480.45
2019-02-20T13:50:01.043Z,101483.77
2019-02-20T13:52:30.518Z,101474.34
2019-02-20T13:55:00.420Z,101479.12
2019-02-20T13:57:29.713Z,101470.30
2019-02-20T13:59:59.052Z,101477.76
2019-02-20T14:02:29.353Z,101484.18
2019-02-20T14:04:58.853Z,101484.06
2019-02-20T14:07:28.191Z,101484.11
2019-02-20T14:09:57.866Z,101485.27
2019-02-20T14:12:27.260Z,101486.54
2019-02-20T14:14:56.542Z,101478.05
2019-02-20T14:17:26.877Z,101481.45
2019-02-20T14:19:56.403Z,101476.52
2019-02-20T14:22:25.834Z,101476.16
2019-02-20T14:24:55.221Z,101470.20
2019-02-20T14:27:24.679Z,101479.78
2019-02-20T14:29:54.339Z,101476.41
2019-02-20T14:32:23.727Z,101474.66
2019-02-20T14:34:53.111Z,101469.66
2019-02-20T14:37:22.624Z,101472.22
2019-02-20T14:39:51.901Z,101458.21
2019-02-20T14:42:21.276Z,101464.23
2019-02-20T14:44:50.520Z,101471.55
2019-02-20T14:47:19.817Z,101467.55
2019-02-20T14:49:49.119Z,101472.59
2019-02-20T14:52:18.735Z,101473.02
2019-02-20T14:54:48.103Z,101477.97
2019-02-20T14:57:19.755Z,101477.14
2019-02-20T14:59:48.693Z,101480.73
2019-02-20T15:02:18.103Z,101483.44
2019-02-20T15:04:47.509Z,101481.47
2019-02-20T15:07:16.687Z,101480.99
2019-02-20T15:09:45.992Z,101485.69
2019-02-20T15:12:15.771Z,101487.87
2019-02-20T15:14:45.098Z,101485.16
2019-02-20T15:17:14.502Z,101488.31
2019-02-20T15:19:44.018Z,101488.30
2019-02-20T15:22:13.436Z,101493.95
2019-02-20T15:24:42.899Z,101494.79
2019-02-20T15:27:12.698Z,101493.19
2019-02-20T15:29:42.127Z,101494.17
2019-02-20T15:32:11.630Z,101490.91
2019-02-20T15:34:41.183Z,101480.87
2019-02-20T15:37:10.729Z,101482.07
2019-02-20T15:39:40.387Z,101485.09
2019-02-20T15:42:10.492Z,101482.86
2019-02-20T15:44:39.990Z,101483.08
2019-02-20T15:47:09.601Z,101482.62
2019-02-20T15:49:39.082Z,101490.16
2019-02-20T15:52:08.830Z,101492.30
2019-02-20T15:54:38.514Z,101499.59
2019-02-20T15:57:08.394Z,101493.39
2019-02-20T15:59:38.834Z,101493.91
2019-02-20T16:02:08.594Z,101494.63
2019-02-20T16:04:38.129Z,101498.34
2019-02-20T16:07:07.679Z,101504.92
2019-02-20T16:09:37.209Z,101511.16
2019-02-20T16:12:07.243Z,101503.05
2019-02-20T16:14:38.161Z,101508.13
2019-02-20T16:17:08.490Z,101508.00
2019-02-20T16:19:38.050Z,101508.81
2019-02-20T16:22:07.780Z,101512.78
2019-02-20T16:24:37.357Z,101517.21
2019-02-20T16:27:07.406Z,101511.52
2019-02-20T16:29:36.879Z,101518.91
2019-02-20T16:32:06.494Z,101521.09
2019-02-20T16:34:35.997Z,101525.12
2019-02-20T16:37:06.896Z,101529.77
2019-02-20T16:39:36.665Z,101533.88
2019-02-20T16:42:06.592Z,101527.00
2019-02-20T16:44:36.184Z,101531.70
2019-02-20T16:47:05.753Z,101527.49
2019-02-20T16:49:35.340Z,101522.51
2019-02-20T16:52:04.961Z,101531.96
2019-02-20T16:54:34.475Z,101522.36
2019-02-20T16:57:04.289Z,101529.20
2019-02-20T16:59:33.957Z,101535.00
2019-02-20T17:02:03.595Z,101537.92
2019-02-20T17:04:33.249Z,101538.29
2019-02-20T17:07:02.969Z,101541.38
2019-02-20T17:09:32.713Z,101541.70
2019-02-20T17:12:02.607Z,101544.29
2019-02-20T17:14:32.258Z,101547.37
2019-02-20T17:17:01.950Z,101547.17
2019-02-20T17:19:31.633Z,101552.73
2019-02-20T17:22:01.347Z,101551.98
2019-02-20T17:24:30.879Z,101557.13
2019-02-20T17:27:01.660Z,101560.17
2019-02-20T17:29:31.286Z,101565.28
2019-02-20T17:32:00.871Z,101566.74
2019-02-20T17:34:30.657Z,101567.12
2019-02-20T17:37:00.200Z,101574.88
2019-02-20T17:39:29.869Z,101581.01
2019-02-20T17:41:59.862Z,101576.48
2019-02-20T17:44:29.503Z,101582.30
2019-02-20T17:46:59.291Z,101585.98
2019-02-20T17:49:28.823Z,101591.49
2019-02-20T17:51:58.354Z,101588.27
2019-02-20T17:54:28.074Z,101590.19
2019-02-20T17:56:57.946Z,101595.27
2019-02-20T17:59:27.644Z,101595.10
2019-02-20T18:01:58.517Z,101597.93
2019-02-20T18:04:28.220Z,101597.83
2019-02-20T18:06:57.860Z,101585.75
2019-02-20T18:09:27.500Z,101586.14
2019-02-20T18:11:56.935Z,101590.95
2019-02-20T18:14:26.428Z,101593.13
2019-02-20T18:16:56.018Z,101587.91
2019-02-20T18:19:25.771Z,101588.36
2019-02-20T18:21:55.416Z,101590.39
2019-02-20T18:24:26.101Z,101590.75
2019-02-20T18:26:57.748Z,101598.77
2019-02-20T18:29:27.186Z,101596.83
2019-02-20T18:31:56.856Z,101599.72
2019-02-20T18:34:26.532Z,101599.71
2019-02-20T18:36:56.120Z,101602.31
2019-02-20T18:39:25.755Z,101597.52
2019-02-20T18:41:55.326Z,101599.05
2019-02-20T18:44:25.029Z,101603.24
2019-02-20T18:46:57.114Z,101600.61
2019-02-20T18:49:27.072Z,101610.95
2019-02-20T18:51:56.692Z,101608.43
2019-02-20T18:54:26.366Z,101610.61
2019-02-20T18:56:57.603Z,101610.14
2019-02-20T18:59:27.171Z,101606.32
2019-02-20T19:01:56.751Z,101606.35
2019-02-20T19:04:26.309Z,101603.06
2019-02-20T19:06:55.968Z,101610.07
2019-02-20T19:09:32.565Z,101609.42
2019-02-20T19:12:45.849Z,101610.25
2019-02-20T19:15:44.695Z,101608.11
2019-02-20T19:18:39.330Z,101605.12
2019-02-20T19:21:46.885Z,101607.83
2019-02-20T19:25:10.977Z,101615.16
2019-02-20T19:28:20.446Z,101606.52
2019-02-20T19:31:42.496Z,101608.37
2019-02-20T19:35:12.826Z,101614.89
2019-02-20T19:38:12.367Z,101609.23
2019-02-20T19:41:34.775Z,101612.08
2019-02-20T19:44:26.154Z,101616.23
2019-02-20T19:47:36.105Z,101615.06
2019-02-20T19:50:39.887Z,101608.23
2019-02-20T19:53:43.456Z,101611.06
2019-02-20T19:56:58.368Z,101613.58
2019-02-20T20:00:05.430Z,101619.55
2019-02-20T20:03:24.504Z,101610.55
2019-02-20T20:06:30.640Z,101609.22
2019-02-20T20:09:43.481Z,101607.56
2019-02-20T20:12:56.514Z,101607.22
2019-02-20T20:15:32.063Z,101610.02
2019-02-20T20:18:39.081Z,101605.17
2019-02-20T20:21:27.499Z,101599.02
2019-02-20T20:24:22.684Z,101605.81
2019-02-20T20:27:44.539Z,101599.48
2019-02-20T20:30:48.253Z,101605.81
2019-02-20T20:33:44.148Z,101601.80
2019-02-20T20:36:34.521Z,101596.78
2019-02-20T20:39:48.034Z,101598.44
2019-02-20T20:42:44.427Z,101595.14
2019-02-20T20:45:57.223Z,101594.79
2019-02-20T20:49:00.889Z,101596.89
2019-02-20T20:51:56.663Z,101604.66
2019-02-20T20:54:52.056Z,101604.89
2019-02-20T20:57:47.437Z,101604.47
2019-02-20T21:00:47.372Z,101614.43
2019-02-20T21:03:17.874Z,101605.30
2019-02-20T21:06:28.360Z,101612.44
2019-02-20T21:09:05.993Z,101611.06
2019-02-20T21:12:25.261Z,101607.02
2019-02-20T21:15:22.884Z,101605.07
2019-02-20T21:18:33.463Z,101596.55
2019-02-20T21:21:45.234Z,101599.61
2019-02-20T21:24:46.218Z,101600.23
2019-02-20T21:28:01.269Z,101600.89
2019-02-20T21:30:54.055Z,101606.47
2019-02-20T21:34:04.450Z,101602.73
2019-02-20T21:36:41.943Z,101603.33
2019-02-20T21:39:42.914Z,101616.91
2019-02-20T21:42:45.824Z,101607.05
2019-02-20T21:45:45.524Z,101607.44
2019-02-20T21:48:49.655Z,101606.13
2019-02-20T21:51:44.072Z,101616.36
2019-02-20T21:54:30.491Z,101622.14
2019-02-20T21:57:39.685Z,101627.30
2019-02-20T22:00:49.063Z,101622.52
2019-02-20T22:04:05.048Z,101624.14
2019-02-20T22:07:24.302Z,101623.95
2019-02-20T22:10:17.222Z,101625.47
2019-02-20T22:13:29.210Z,101627.84
2019-02-20T22:16:28.869Z,101631.22
2019-02-20T22:19:39.550Z,101625.12
2019-02-20T22:22:30.732Z,101622.17
2019-02-20T22:25:41.767Z,101623.55
2019-02-20T22:28:35.051Z,101625.44
2019-02-20T22:31:37.441Z,101627.41
2019-02-20T22:34:33.343Z,101630.64
2019-02-20T22:37:42.016Z,101626.30
2019-02-20T22:40:35.597Z,101625.36
2019-02-20T22:43:46.076Z,101622.88
2019-02-20T22:46:46.164Z,101620.95
2019-02-20T22:50:29.358Z,101630.27
2019-02-20T22:53:14.383Z,101634.47
2019-02-20T22:56:19.909Z,101628.84
2019-02-20T22:59:19.817Z,101636.17
2019-02-20T23:02:10.656Z,101631.84
2019-02-20T23:05:38.814Z,101633.03
2019-02-20T23:08:36.824Z,101631.36
2019-02-20T23:11:23.079Z,101632.22
2019-02-20T23:14:30.485Z,101637.72
2019-02-20T23:16:59.892Z,101631.22
2019-02-20T23:19:29.204Z,101629.55
2019-02-20T23:21:58.594Z,101636.55
2019-02-20T23:24:27.899Z,101635.72
2019-02-20T23:26:57.268Z,101642.83
2019-02-20T23:29:26.528Z,101641.13
2019-02-20T23:31:55.748Z,101646.42
2019-02-20T23:34:25.080Z,101646.87
2019-02-20T23:36:54.439Z,101640.04
2019-02-20T23:39:23.719Z,101642.98
2019-02-20T23:41:52.983Z,101652.02
2019-02-20T23:44:22.301Z,101651.48
2019-02-20T23:46:51.578Z,101652.73
2019-02-20T23:49:20.840Z,101658.34
2019-02-20T23:51:50.220Z,101656.08
2019-02-20T23:54:19.436Z,101668.65
2019-02-20T23:56:48.653Z,101664.98
2019-02-20T23:59:17.937Z,101670.17
